createdAt,value
2022-11-07T00:02:16.886Z,49.80
2022-11-07T00:05:04.242Z,50.00
2022-11-07T00:07:51.533Z,50.00
2022-11-07T00:10:38.510Z,50.00
2022-11-07T00:13:27.364Z,50.10
2022-11-07T00:16:16.881Z,50.00
2022-11-07T00:19:04.277Z,50.10
2022-11-07T00:21:51.908Z,50.20
2022-11-07T00:24:39.187Z,50.20
2022-11-07T00:27:26.386Z,50.20
2022-11-07T00:30:14.815Z,50.30
2022-11-07T00:33:03.264Z,50.40
2022-11-07T00:35:50.502Z,50.40
2022-11-07T00:38:37.788Z,50.40
2022-11-07T00:41:25.543Z,50.50
2022-11-07T00:44:12.571Z,50.50
2022-11-07T00:46:59.609Z,50.60
2022-11-07T00:49:47.984Z,50.70
2022-11-07T00:52:35.283Z,50.80
2022-11-07T00:55:22.629Z,50.70
2022-11-07T00:58:13.825Z,50.80
2022-11-07T01:01:08.453Z,50.90
2022-11-07T01:04:13.251Z,50.90
2022-11-07T01:07:02.814Z,51.00
2022-11-07T01:09:49.966Z,51.10
2022-11-07T01:12:38.101Z,51.00
2022-11-07T01:15:25.209Z,51.10
2022-11-07T01:18:12.404Z,51.20
2022-11-07T01:20:59.351Z,51.20
2022-11-07T01:23:48.041Z,51.20
2022-11-07T01:26:35.345Z,51.30
2022-11-07T01:29:22.491Z,51.30
2022-11-07T01:32:09.849Z,51.30
2022-11-07T01:34:57.003Z,51.40
2022-11-07T01:37:44.064Z,51.40
2022-11-07T01:40:33.848Z,51.50
2022-11-07T01:43:21.145Z,51.60
2022-11-07T01:46:09.992Z,51.60
2022-11-07T01:49:05.818Z,51.50
2022-11-07T01:51:59.735Z,51.70
2022-11-07T01:54:53.508Z,51.60
2022-11-07T01:57:46.482Z,51.70
2022-11-07T02:00:35.508Z,51.70
2022-11-07T02:03:23.199Z,51.70
2022-11-07T02:06:15.766Z,51.60
2022-11-07T02:09:03.028Z,51.80
2022-11-07T02:11:50.175Z,51.70
2022-11-07T02:14:38.691Z,51.70
2022-11-07T02:17:26.011Z,51.80
2022-11-07T02:20:13.722Z,51.70
2022-11-07T02:23:05.242Z,51.80
2022-11-07T02:25:54.089Z,51.80
2022-11-07T02:28:42.509Z,51.90
2022-11-07T02:31:29.673Z,51.90
2022-11-07T02:34:16.768Z,51.80
2022-11-07T02:37:08.084Z,51.80
2022-11-07T02:39:55.138Z,51.90
2022-11-07T02:42:46.298Z,51.80
2022-11-07T02:45:37.976Z,51.90
2022-11-07T02:48:30.418Z,52.00
2022-11-07T02:51:17.906Z,52.10
2022-11-07T02:54:05.725Z,51.90
2022-11-07T02:56:52.999Z,51.90
2022-11-07T02:59:41.444Z,51.90
2022-11-07T03:02:28.945Z,51.90
2022-11-07T03:05:18.210Z,51.90
2022-11-07T03:08:05.794Z,51.90
2022-11-07T03:10:53.104Z,51.90
2022-11-07T03:13:41.001Z,51.90
2022-11-07T03:16:29.833Z,52.00
2022-11-07T03:19:16.920Z,52.10
2022-11-07T03:22:04.612Z,52.00
2022-11-07T03:24:52.719Z,52.00
2022-11-07T03:27:48.532Z,52.00
2022-11-07T03:30:35.975Z,52.30
2022-11-07T03:33:24.552Z,52.10
2022-11-07T03:36:12.534Z,52.20
2022-11-07T03:38:59.511Z,52.20
2022-11-07T03:41:46.530Z,52.20
2022-11-07T03:44:33.649Z,52.20
2022-11-07T03:47:20.864Z,52.20
2022-11-07T03:50:12.053Z,52.20
2022-11-07T03:52:59.467Z,52.40
2022-11-07T03:55:48.818Z,52.20
2022-11-07T03:58:36.511Z,52.30
2022-11-07T04:01:23.911Z,52.30
2022-11-07T04:04:11.598Z,52.30
2022-11-07T04:07:00.159Z,52.30
2022-11-07T04:09:47.384Z,52.40
2022-11-07T04:12:52.049Z,52.30
2022-11-07T04:15:57.440Z,52.30
2022-11-07T04:18:44.577Z,52.40
2022-11-07T04:21:31.561Z,52.50
2022-11-07T04:24:19.971Z,52.40
2022-11-07T04:27:25.033Z,52.50
2022-11-07T04:30:24.919Z,52.50
2022-11-07T04:33:12.328Z,52.50
2022-11-07T04:36:02.421Z,52.50
2022-11-07T04:38:49.841Z,52.50
2022-11-07T04:41:38.354Z,52.60
2022-11-07T04:44:25.463Z,52.60
2022-11-07T04:47:12.588Z,52.60
2022-11-07T04:49:59.907Z,52.60
2022-11-07T04:52:48.213Z,52.60
2022-11-07T04:55:35.517Z,52.60
2022-11-07T04:58:24.095Z,52.60
2022-11-07T05:01:11.470Z,52.70
2022-11-07T05:03:58.599Z,52.70
2022-11-07T05:06:45.847Z,52.70
2022-11-07T05:09:34.311Z,52.70
2022-11-07T05:12:21.519Z,52.70
2022-11-07T05:15:11.235Z,52.60
2022-11-07T05:17:58.505Z,52.70
2022-11-07T05:20:45.523Z,52.60
2022-11-07T05:23:32.759Z,52.60
2022-11-07T05:26:19.841Z,52.60
2022-11-07T05:29:08.740Z,52.60
2022-11-07T05:31:57.688Z,52.50
2022-11-07T05:34:44.984Z,52.60
2022-11-07T05:37:31.786Z,52.50
2022-11-07T05:40:19.066Z,52.50
2022-11-07T05:43:09.009Z,52.60
2022-11-07T05:46:00.889Z,52.60
2022-11-07T05:48:49.296Z,52.70
2022-11-07T05:51:36.648Z,52.60
2022-11-07T05:54:24.703Z,52.50
2022-11-07T05:57:11.788Z,52.50
2022-11-07T05:59:59.261Z,52.50
2022-11-07T06:02:46.924Z,52.50
2022-11-07T06:05:35.326Z,52.50
2022-11-07T06:08:22.510Z,52.60
2022-11-07T06:11:09.597Z,52.50
2022-11-07T06:13:57.005Z,52.50
2022-11-07T06:16:44.226Z,52.50
2022-11-07T06:19:31.426Z,52.60
2022-11-07T06:22:19.724Z,52.50
2022-11-07T06:25:07.861Z,52.60
2022-11-07T06:27:55.243Z,52.50
2022-11-07T06:30:43.206Z,52.50
2022-11-07T06:33:31.011Z,52.50
2022-11-07T06:36:18.334Z,52.60
2022-11-07T06:39:07.178Z,52.50
2022-11-07T06:41:54.508Z,52.60
2022-11-07T06:44:41.761Z,52.60
2022-11-07T06:47:28.852Z,52.50
2022-11-07T06:50:16.204Z,52.50
2022-11-07T06:53:04.423Z,52.50
2022-11-07T06:55:52.812Z,52.50
2022-11-07T06:58:40.336Z,52.50
2022-11-07T07:01:27.731Z,52.50
2022-11-07T07:03:56.426Z,52.50
2022-11-07T07:06:25.118Z,52.60
2022-11-07T07:08:54.564Z,52.60
2022-11-07T07:11:24.941Z,52.60
2022-11-07T07:13:56.029Z,52.60
2022-11-07T07:16:28.162Z,52.60
2022-11-07T07:18:56.837Z,52.60
2022-11-07T07:21:26.044Z,52.60
2022-11-07T07:23:54.771Z,52.60
2022-11-07T07:26:24.703Z,52.60
2022-11-07T07:28:53.298Z,52.80
2022-11-07T07:31:26.420Z,52.60
2022-11-07T07:33:55.024Z,52.70
2022-11-07T07:36:23.804Z,52.70
2022-11-07T07:38:53.090Z,52.70
2022-11-07T07:41:21.814Z,52.70
2022-11-07T07:43:51.814Z,52.70
2022-11-07T07:46:24.224Z,52.80
2022-11-07T07:48:52.849Z,52.70
2022-11-07T07:51:21.595Z,52.70
2022-11-07T07:53:50.172Z,52.70
2022-11-07T07:56:18.796Z,52.70
2022-11-07T07:58:47.664Z,52.70
2022-11-07T08:01:17.861Z,52.80
2022-11-07T08:04:00.747Z,52.80
2022-11-07T08:06:31.187Z,52.70
2022-11-07T08:08:59.775Z,52.70
2022-11-07T08:11:28.642Z,52.70
2022-11-07T08:14:01.022Z,52.90
2022-11-07T08:16:31.718Z,52.70
2022-11-07T08:19:00.349Z,52.70
2022-11-07T08:21:28.943Z,52.70
2022-11-07T08:23:57.547Z,52.70
2022-11-07T08:26:26.549Z,52.90
2022-11-07T08:28:55.799Z,52.80
2022-11-07T08:31:27.376Z,52.90
2022-11-07T08:34:00.545Z,52.90
2022-11-07T08:36:29.875Z,52.90
2022-11-07T08:38:58.550Z,52.90
2022-11-07T08:41:27.140Z,52.80
2022-11-07T08:43:55.774Z,52.90
2022-11-07T08:46:24.437Z,52.90
2022-11-07T08:48:52.996Z,52.80
2022-11-07T08:51:22.970Z,52.80
2022-11-07T08:53:51.533Z,52.90
2022-11-07T08:56:20.150Z,52.90
2022-11-07T08:58:48.723Z,53.00
2022-11-07T09:01:17.734Z,53.00
2022-11-07T09:03:51.689Z,53.10
2022-11-07T09:06:24.959Z,53.00
2022-11-07T09:08:53.581Z,53.00
2022-11-07T09:11:22.514Z,52.90
2022-11-07T09:13:51.198Z,52.90
2022-11-07T09:16:20.506Z,52.90
2022-11-07T09:18:50.710Z,52.90
2022-11-07T09:21:22.743Z,52.90
2022-11-07T09:23:53.467Z,52.90
2022-11-07T09:26:22.295Z,52.90
2022-11-07T09:28:53.944Z,52.90
2022-11-07T09:31:24.915Z,52.90
2022-11-07T09:33:53.491Z,52.90
2022-11-07T09:36:24.226Z,52.90
2022-11-07T09:38:56.262Z,52.80
2022-11-07T09:41:38.019Z,52.80
2022-11-07T09:44:40.716Z,52.90
2022-11-07T09:47:20.942Z,53.00
2022-11-07T09:49:53.112Z,53.00
2022-11-07T09:52:29.699Z,52.90
2022-11-07T09:55:08.504Z,52.90
2022-11-07T09:57:39.030Z,53.00
2022-11-07T10:00:15.024Z,53.00
2022-11-07T10:02:47.914Z,52.90
2022-11-07T10:05:20.245Z,53.70
2022-11-07T10:08:01.253Z,53.00
2022-11-07T10:10:42.101Z,53.10
2022-11-07T10:13:49.605Z,53.00
2022-11-07T10:16:32.932Z,53.20
2022-11-07T10:19:20.902Z,53.10
2022-11-07T10:22:02.986Z,53.10
2022-11-07T10:24:46.413Z,53.10
2022-11-07T10:27:16.427Z,53.20
2022-11-07T10:29:51.069Z,53.10
2022-11-07T10:32:26.231Z,53.20
2022-11-07T10:35:17.184Z,53.40
2022-11-07T10:37:54.802Z,53.40
2022-11-07T10:40:26.113Z,53.30
2022-11-07T10:42:57.232Z,53.40
2022-11-07T10:45:28.936Z,53.40
2022-11-07T10:48:00.794Z,53.40
2022-11-07T10:50:30.186Z,53.30
2022-11-07T10:53:01.775Z,53.40
2022-11-07T10:55:44.017Z,53.40
2022-11-07T10:58:22.423Z,53.40
2022-11-07T11:01:04.887Z,53.50
2022-11-07T11:03:44.672Z,53.40
2022-11-07T11:06:31.170Z,53.40
2022-11-07T11:09:02.421Z,53.40
2022-11-07T11:11:37.084Z,53.30
2022-11-07T11:14:12.563Z,53.30
2022-11-07T11:16:42.776Z,53.40
2022-11-07T11:19:23.914Z,53.40
2022-11-07T11:21:56.153Z,53.50
2022-11-07T11:24:35.705Z,53.40
2022-11-07T11:27:12.663Z,53.50
2022-11-07T11:29:51.120Z,53.40
2022-11-07T11:32:27.050Z,53.50
2022-11-07T11:35:07.028Z,53.60
2022-11-07T11:37:39.808Z,53.50
2022-11-07T11:40:16.578Z,53.40
2022-11-07T11:42:54.458Z,53.50
2022-11-07T11:45:35.261Z,53.50
2022-11-07T11:48:13.692Z,53.50
2022-11-07T11:50:47.161Z,53.50
2022-11-07T11:53:20.654Z,53.50
2022-11-07T11:55:59.546Z,53.50
2022-11-07T11:58:43.809Z,53.60
2022-11-07T12:04:27.741Z,53.50
2022-11-07T12:07:03.313Z,53.50
2022-11-07T12:09:38.481Z,53.70
2022-11-07T12:12:23.850Z,53.70
2022-11-07T12:15:25.242Z,53.80
2022-11-07T12:18:02.281Z,53.80
2022-11-07T12:20:38.006Z,53.60
2022-11-07T12:23:23.133Z,53.60
2022-11-07T12:25:59.869Z,53.70
2022-11-07T12:28:48.453Z,53.70
2022-11-07T12:31:40.805Z,53.80
2022-11-07T12:34:24.301Z,53.90
2022-11-07T12:37:16.537Z,53.80
2022-11-07T12:40:01.961Z,53.80
2022-11-07T12:42:46.486Z,53.80
2022-11-07T12:45:24.136Z,53.80
2022-11-07T12:48:17.902Z,53.90
2022-11-07T12:50:55.905Z,53.90
2022-11-07T12:53:39.868Z,53.90
2022-11-07T12:56:13.361Z,54.00
2022-11-07T12:58:44.515Z,53.90
2022-11-07T13:01:15.248Z,53.90
2022-11-07T13:03:59.208Z,54.00
2022-11-07T13:06:36.833Z,54.00
2022-11-07T13:09:18.195Z,53.90
2022-11-07T13:11:54.256Z,54.00
2022-11-07T13:14:30.204Z,53.90
2022-11-07T13:17:24.969Z,53.80
2022-11-07T13:20:01.654Z,54.00
2022-11-07T13:22:37.807Z,53.90
2022-11-07T13:25:26.008Z,53.90
2022-11-07T13:28:07.023Z,54.50
2022-11-07T13:30:38.867Z,53.80
2022-11-07T13:33:23.483Z,53.80
2022-11-07T13:35:57.402Z,53.80
2022-11-07T13:38:29.034Z,53.80
2022-11-07T13:41:03.986Z,53.70
2022-11-07T13:43:41.637Z,53.70
2022-11-07T13:46:20.309Z,53.80
2022-11-07T13:48:53.682Z,53.70
2022-11-07T13:51:28.996Z,53.70
2022-11-07T13:54:11.643Z,53.80
2022-11-07T13:56:45.585Z,53.80
2022-11-07T13:59:33.852Z,53.80
2022-11-07T14:02:05.163Z,53.80
2022-11-07T14:04:40.491Z,53.70
2022-11-07T14:07:20.267Z,53.70
2022-11-07T14:09:58.786Z,53.60
2022-11-07T14:12:29.386Z,53.80
2022-11-07T14:15:00.310Z,53.60
2022-11-07T14:17:34.633Z,53.70
2022-11-07T14:20:18.398Z,53.80
2022-11-07T14:22:52.649Z,53.80
2022-11-07T14:25:28.262Z,53.70
2022-11-07T14:27:57.465Z,53.90
2022-11-07T14:30:29.707Z,53.70
2022-11-07T14:33:01.290Z,53.60
2022-11-07T14:35:34.445Z,53.70
2022-11-07T14:38:16.508Z,53.60
2022-11-07T14:40:47.645Z,53.70
2022-11-07T14:43:22.512Z,53.60
2022-11-07T14:46:12.912Z,53.70
2022-11-07T14:48:47.928Z,53.60
2022-11-07T14:51:20.298Z,53.60
2022-11-07T14:54:00.798Z,53.60
2022-11-07T14:56:36.927Z,53.70
2022-11-07T14:59:06.034Z,53.70
2022-11-07T15:01:35.520Z,53.70
2022-11-07T15:04:29.009Z,53.60
2022-11-07T15:06:58.366Z,53.80
2022-11-07T15:09:35.672Z,53.60
2022-11-07T15:12:17.127Z,53.60
2022-11-07T15:14:46.489Z,53.60
2022-11-07T15:17:24.910Z,53.60
2022-11-07T15:20:00.752Z,53.60
2022-11-07T15:22:37.870Z,53.70
2022-11-07T15:25:26.164Z,53.60
2022-11-07T15:27:57.153Z,53.60
2022-11-07T15:30:30.964Z,53.60
2022-11-07T15:32:59.934Z,53.60
2022-11-07T15:35:43.646Z,53.60
2022-11-07T15:38:20.167Z,53.60
2022-11-07T15:40:49.664Z,53.60
2022-11-07T15:43:20.216Z,53.60
2022-11-07T15:45:50.979Z,53.60
2022-11-07T15:48:22.691Z,53.60
2022-11-07T15:50:51.905Z,53.60
2022-11-07T15:53:23.904Z,53.60
2022-11-07T15:55:54.643Z,53.60
2022-11-07T15:58:26.564Z,53.60
2022-11-07T16:00:56.156Z,53.60
2022-11-07T16:03:26.850Z,53.60
2022-11-07T16:06:04.011Z,53.60
2022-11-07T16:08:32.709Z,53.70
2022-11-07T16:11:04.537Z,53.60
2022-11-07T16:14:29.297Z,53.60
2022-11-07T16:16:50.010Z,53.80
2022-11-07T16:19:22.243Z,53.60
2022-11-07T16:21:50.863Z,53.60
2022-11-07T16:24:19.443Z,53.60
2022-11-07T16:26:50.734Z,53.60
2022-11-07T16:29:20.706Z,53.60
2022-11-07T16:31:49.331Z,53.60
2022-11-07T16:34:17.932Z,53.60
2022-11-07T16:36:48.880Z,53.60
2022-11-07T16:39:21.604Z,53.60
2022-11-07T16:41:51.416Z,53.60
2022-11-07T16:44:26.426Z,53.60
2022-11-07T16:46:57.049Z,53.60
2022-11-07T16:49:30.686Z,53.60
2022-11-07T16:51:59.811Z,53.60
2022-11-07T16:54:28.411Z,53.60
2022-11-07T16:56:57.300Z,53.60
2022-11-07T16:59:27.337Z,53.60
2022-11-07T17:01:56.142Z,53.60
2022-11-07T17:04:24.805Z,53.60
2022-11-07T17:06:53.442Z,53.60
2022-11-07T17:09:24.736Z,53.60
2022-11-07T17:11:53.305Z,53.60
2022-11-07T17:14:21.923Z,53.50
2022-11-07T17:16:51.895Z,53.50
2022-11-07T17:19:20.500Z,53.50
2022-11-07T17:21:49.506Z,53.50
2022-11-07T17:24:20.635Z,53.50
2022-11-07T17:26:49.305Z,53.50
2022-11-07T17:29:18.014Z,53.50
2022-11-07T17:31:50.297Z,53.50
2022-11-07T17:34:21.487Z,53.50
2022-11-07T17:36:59.466Z,53.40
2022-11-07T17:39:28.311Z,53.50
2022-11-07T17:41:57.687Z,53.40
2022-11-07T17:44:26.787Z,53.50
2022-11-07T17:47:14.330Z,53.60
2022-11-07T17:49:44.689Z,53.60
2022-11-07T17:52:13.675Z,53.50
2022-11-07T17:54:42.307Z,53.50
2022-11-07T17:57:11.408Z,53.50
2022-11-07T17:59:45.603Z,53.60
2022-11-07T18:02:20.263Z,53.60
2022-11-07T18:04:50.315Z,53.60
2022-11-07T18:07:19.238Z,53.50
2022-11-07T18:09:49.436Z,53.50
2022-11-07T18:12:18.099Z,53.50
2022-11-07T18:14:46.700Z,53.50
2022-11-07T18:17:15.288Z,53.60
2022-11-07T18:19:44.104Z,53.60
2022-11-07T18:22:14.128Z,53.60
2022-11-07T18:24:42.828Z,53.60
2022-11-07T18:27:11.395Z,53.60
2022-11-07T18:29:40.880Z,53.60
2022-11-07T18:32:09.701Z,53.60
2022-11-07T18:34:38.342Z,53.60
2022-11-07T18:37:06.944Z,53.50
2022-11-07T18:39:37.190Z,53.50
2022-11-07T18:42:06.045Z,53.40
2022-11-07T18:44:34.679Z,53.50
2022-11-07T18:47:03.385Z,53.40
2022-11-07T18:49:32.138Z,53.40
2022-11-07T18:52:00.752Z,53.40
2022-11-07T18:54:29.990Z,53.50
2022-11-07T18:56:59.954Z,53.50
2022-11-07T18:59:28.662Z,53.40
2022-11-07T19:01:57.285Z,53.40
2022-11-07T19:04:25.928Z,53.50
2022-11-07T19:06:57.924Z,53.40
2022-11-07T19:09:29.837Z,53.40
2022-11-07T19:12:01.662Z,53.40
2022-11-07T19:14:32.804Z,53.40
2022-11-07T19:17:01.385Z,53.60
2022-11-07T19:19:30.035Z,53.50
2022-11-07T19:21:58.643Z,53.50
2022-11-07T19:24:27.291Z,53.40
2022-11-07T19:26:55.923Z,53.50
2022-11-07T19:29:26.469Z,53.50
2022-11-07T19:31:55.075Z,53.50
2022-11-07T19:34:25.655Z,53.50
2022-11-07T19:36:54.257Z,53.50
2022-11-07T19:39:22.944Z,53.50
2022-11-07T19:41:51.638Z,53.50
2022-11-07T19:44:20.332Z,53.50
2022-11-07T19:46:50.437Z,53.50
2022-11-07T19:49:19.000Z,53.50
2022-11-07T19:51:47.615Z,53.60
2022-11-07T19:54:16.460Z,53.50
2022-11-07T19:56:45.347Z,53.50
2022-11-07T19:59:14.100Z,53.50
2022-11-07T20:01:43.091Z,53.50
2022-11-07T20:04:13.117Z,53.50
2022-11-07T20:06:41.718Z,53.50
2022-11-07T20:09:11.351Z,53.50
2022-11-07T20:11:40.150Z,53.50
2022-11-07T20:14:08.745Z,53.50
2022-11-07T20:16:37.945Z,53.50
2022-11-07T20:19:06.847Z,53.50
2022-11-07T20:21:36.803Z,53.40
2022-11-07T20:24:09.059Z,53.40
2022-11-07T20:26:38.756Z,53.40
2022-11-07T20:29:07.570Z,53.40
2022-11-07T20:31:40.011Z,53.50
2022-11-07T20:34:09.559Z,53.50
2022-11-07T20:36:40.165Z,53.40
2022-11-07T20:39:09.484Z,53.40
2022-11-07T20:41:38.488Z,53.40
2022-11-07T20:44:08.495Z,53.40
2022-11-07T20:46:40.538Z,53.40
2022-11-07T20:49:12.970Z,53.40
2022-11-07T20:51:43.855Z,53.40
2022-11-07T20:54:14.593Z,53.40
2022-11-07T20:56:43.978Z,53.30
2022-11-07T20:59:14.114Z,53.30
2022-11-07T21:01:43.169Z,53.40
2022-11-07T21:04:44.445Z,53.40
2022-11-07T21:07:41.098Z,53.40
2022-11-07T21:10:33.856Z,53.40
2022-11-07T21:13:21.617Z,53.40
2022-11-07T21:16:11.269Z,53.30
2022-11-07T21:19:05.584Z,53.40
2022-11-07T21:21:52.506Z,53.40
2022-11-07T21:24:40.992Z,53.40
2022-11-07T21:27:27.988Z,53.40
2022-11-07T21:30:16.266Z,53.40
2022-11-07T21:33:03.435Z,53.50
2022-11-07T21:35:50.576Z,53.40
2022-11-07T21:38:37.706Z,53.50
2022-11-07T21:41:26.485Z,53.60
2022-11-07T21:44:14.226Z,53.60
2022-11-07T21:47:01.251Z,53.60
2022-11-07T21:49:49.907Z,53.70
2022-11-07T21:52:37.131Z,53.80
2022-11-07T21:55:24.472Z,53.80
2022-11-07T21:58:12.929Z,53.80
2022-11-07T22:01:03.809Z,53.80
2022-11-07T22:04:06.634Z,53.90
2022-11-07T22:06:55.666Z,53.80
2022-11-07T22:09:42.955Z,53.90
2022-11-07T22:12:29.941Z,53.90
2022-11-07T22:15:18.620Z,53.90
2022-11-07T22:18:06.097Z,53.90
2022-11-07T22:20:53.064Z,53.90
2022-11-07T22:23:41.105Z,53.90
2022-11-07T22:26:30.836Z,53.80
2022-11-07T22:29:18.264Z,53.80
2022-11-07T22:32:06.964Z,53.60
2022-11-07T22:34:53.926Z,53.50
2022-11-07T22:37:40.990Z,53.50
2022-11-07T22:40:28.078Z,53.40
2022-11-07T22:43:15.570Z,53.40
2022-11-07T22:46:04.141Z,53.50
2022-11-07T22:48:53.814Z,53.40
2022-11-07T22:51:41.102Z,53.40
2022-11-07T22:54:28.129Z,53.50
2022-11-07T22:57:17.842Z,53.40
2022-11-07T23:00:21.100Z,53.40
2022-11-07T23:03:08.840Z,53.40
2022-11-07T23:05:57.345Z,53.40
2022-11-07T23:08:44.874Z,53.40
2022-11-07T23:11:50.091Z,53.40
2022-11-07T23:14:37.358Z,53.40
2022-11-07T23:17:25.053Z,53.20
2022-11-07T23:20:34.322Z,53.20
2022-11-07T23:23:23.934Z,53.00
2022-11-07T23:26:14.409Z,53.00
2022-11-07T23:29:09.071Z,53.00
2022-11-07T23:31:57.792Z,53.00
2022-11-07T23:34:45.064Z,53.00
2022-11-07T23:37:32.081Z,53.10
2022-11-07T23:40:20.582Z,53.10
2022-11-07T23:43:07.560Z,53.10
2022-11-07T23:46:12.319Z,52.90
2022-11-07T23:49:17.321Z,53.00
2022-11-07T23:52:05.181Z,53.00
2022-11-07T23:55:09.996Z,52.90
2022-11-07T23:58:16.129Z,53.00
